This site, now in its 15th season, is a labour of love and fun from one of Ottawa's most avid time trialists and number crunchers. It adheres to and is permitted by the laws of Canada, promotes the objectives of every bicycle club whose results are shown, and is donated free of charge by myself for your enjoyment and usage. If you would like results from series you ride in to be shown here, give me (celia@drmath.ca) a shout!


Index Page
ATT OTT WTT AATT CFCTT VVVTT
Help resultformat:
Case-sensitive

OBC Open TT Series - 2008-Jun-05 - 15km (Rockliffe Pkwy) (EvtFactor = 0.9036)

Weather (18:00): Cloudy. Temp.: 22C, Humidity: 70%, Dew Point: 16C, Wind: ESE 13km/h, Pressure: 101.6kPa, Vis: 24km, Humidex: 26.
Weather (19:00): Cloudy. Temp.: 21C, Humidity: 75%, Dew Point: 16C, Wind: E 17km/h, Pressure: 101.6kPa, Vis: 24km, Humidex: 26.
Weather (20:00): Cloudy. Temp.: 21C, Humidity: 74%, Dew Point: 16C, Wind: E 17km/h, Pressure: 101.5kPa, Vis: 24km, Humidex: 25.

Send photos with description (when/where/what) of yourself on or off of bike to celia@drmath.ca

These results were first posted on the OBC site circa 00:30 on 2008-Jun-06 and are available here for your added pleasure and analysis.
If you'd like to use the full functionality of this site and your name is followed by "Need YOB", please send your birth year to celia@drmath.ca.


Some incredible performances tonight, with fabulous PBs for both the top man, Warren MacDonald and top woman, Sue Schlatter - very close to the top of the databased results for Men and Women, respectively. As well, Hermann Kerckhoff continued to improve the VEM 15km record for the fourth time in as many tries this year, while Paul Datars tied the VCM 15km record first set by Rick Sudac on 2004-Jul-29. Other landmarks were Ron Amos, certainly "Mr. Consistency" thus far this year, finally dipping below the 20:00 barrier, Allison McKay plunging below 22:00 for the first time, a huge 36 second improvement for Erich Zappe bringing him below 21 minutes, an average speed over 40km/h for the first time for Robert DeVidi, and one above 35km/h for Sophie Beraud. Overall, 34 of the 56 riders who had ridden an earlier 2008 OTT 15km TT improved or equalled their previous seaon-series best. Good Riding!

 
 

BESTS?
 
1 MacDonald, Warren  OBC/EMD 18:56 47.535 1/71 VAM 1/8 1.1066
2 St. John, Derrick JET 19:16 46.713 2/71 VAM 2/8  
3 Datars, Paul  OBC/RWR 19:57 45.113 3/71 VCM 1/17 1.0227
4 Amos, Ron  OBC/RWR 19:59 45.038 4/71 VBM 1/16 1.0050
5 Graves, Kevin WQW 20:01 44.963 5/71 SEM 1/6 0.9975
6 Hamilton, Peter OBC 20:22 44.190 6/71 VBM 2/16 1.0223
7 Coldrey, Daniel ULT 20:36 43.689 7/71 VAM 3/8  
8 Schlatter, Sue  EMD 20:38 43.619 8/71 VBF 1/5 1.0493
9 Zappe, Erich RWR 20:50 43.200 9/71 VBM 3/16 1.0915
10 Sudac, Rick  OBC/RWR 21:01 42.823 10/71 VCM 2/17 0.8967
11 Katz, Joel  OBC/RWR 21:09 42.553 11/71 VCM 3/17 1.0095
12 Cataford, Alex OBC 21:14 42.386 12/71 CAM 1/4 1.0748
13 Campbell, Colin  OBC 21:20 42.188 13/71 VBM 4/16 1.0356
Corner, Doug  OBC 21:20 42.188 13/71 VCM 4/17  
15 Radford, Iain OBC 21:31 41.828 15/71 VAM 4/8 1.0762
16 Cameron, Allen  OBC/RWR 21:39 41.570 16/71 VCM 5/17 1.0469
17 McKay, Allison  OBC/RDO 21:56 41.033 17/71 VBF 2/5 1.0253
18 McClure, Robert OBC 22:09 40.632 18/71 VBM 5/16  
19 Leclerc, Louis-Philippe IND 22:16 40.419 19/71 SEM 2/6 0.9645
Skafel, Paul CYC 22:16 40.419 19/71 VAM 5/8 1.1213
21 Hess, Detlef OBC 22:17 40.389 21/71 VCM 6/17 0.9933
22 Atkins, Ryan IRO 22:24 40.179 22/71 SEM 3/6 0.9867
23 DeVidi, Robert  OBC 22:26 40.119 23/71 VBM 6/16 1.0430
24 Posthuma, Hans  OBC 22:29 40.030 24/71 VCM 7/17 0.9846
25 Thomas, Trevor CYC 22:42 39.648 25/71 VAM 6/8 0.9674
26 Tongoc, Serge RWR 22:56 39.244 26/71 VBM 7/16 1.0487
27 Farish, Neil  OBC/RWR 23:02 39.074 27/71 VCM 8/17 1.0756
28 Morewood, Colin OBC 23:08 38.905 28/71 CAM 2/4 1.0240
29 Moerman, Bram  OBC 23:10 38.849 29/71 VDM 1/4 1.0262
30 Kerckhoff, Hermann  RWR 23:12 38.793 30/71 VEM 1/1 1.0260
31 Thompson, William OBC 23:18 38.627 31/71 VBM 8/16  
32 Hinz, Richard OBC 23:20 38.571 32/71 VCM 9/17  
33 Burdett, Avery  OBC 23:29 38.325 33/71 VDM 2/4 0.9559
34 Boulanger, Gaetan  OBC 23:37 38.109 34/71 VDM 3/4  
35 Dorego, Jean-Louis OBC 23:41 38.001 35/71 VCM 10/17 0.9279
36 Revesz, Erika  OBC 23:43 37.948 36/71 VCF 1/3 1.0956
37 Paul, Richard  OBC 23:44 37.921 37/71 VCM 11/17 0.9564
38 Turner, Paul OBC 23:47 37.842 38/71 VCM 12/17 1.0645
39 Reissner, Leslie OBC 23:52 37.709 39/71 VCM 13/17 1.3457
40 Coburn, Richard OBC 23:53 37.683 40/71 VBM 9/16 1.0000
41 Austen, Ian  OBC 23:58 37.552 41/71 VCM 14/17 1.0726
42 LeBlanc, Isaac OBC 24:00 37.500 42/71 JUM 1/2 1.1737
43 Wright, David OBC/RWR 24:04 37.396 43/71 VBM 10/16 1.0357
44 Orange, Kiernan OBC/RWR 24:28 36.785 44/71 CAM 3/4  
45 Desjardins, Marcel OBC 24:34 36.635 45/71 VDM 4/4 1.1855
46 Ohuiginn, Liam RWR 24:35 36.610 46/71 SEM 4/6  
47 McInnis, Celia  OBC/ABC 24:39 36.511 47/71 VCF 2/3 1.0040
48 Blais, Bob OBC 24:40 36.486 48/71 VCM 15/17 0.9699
Grace, Darrin  OBC/EUR 24:40 36.486 48/71 VBM 11/16  
50 Janusauskas, Vytas  OBC 24:46 36.339 50/71 VCM 16/17 0.9621
51 Burnet, Alex OBC 24:51 36.217 51/71 SEM 5/6 0.9274
52 Samborsky, Mark OBC 24:56 36.096 52/71 VAM 7/8  
53 Wilkinson, Ross OBC 25:07 35.833 53/71 VBM 12/16 0.8035
54 Simard, Martin OBC 25:09 35.785 54/71 VBM 13/16 1.0180
55 Kenwell, Carley OBC 25:22 35.480 55/71 SEF 1/2 0.9902
56 Evju, Are OBC 25:23 35.456 56/71 JUM 2/2 1.1573
Gagné, Marc  OBC 25:23 35.456 56/71 VBM 14/16 0.9630
Laplante-Lamarche, Florence OBC 25:23 35.456 56/71 CAF 1/1 0.9383
59 Imbrogno, Giorgio  OBC 25:30 35.294 59/71 VCM 17/17 1.0377
60 Coney, Ingrid  OBC 25:31 35.271 60/71 VCF 3/3 0.9424
61 Beraud, Sophie OBC 25:40 35.065 61/71 SEF 2/2 1.2775
62 Ingham, Alison  OBC 26:09 34.417 62/71 VBF 3/5 0.9641
63 McCallum, Carrie OBC 26:41 33.729 63/71 VBF 4/5  
64 Damen, Ryan OBC 26:58 33.375 64/71 CAM 4/4 0.9963
Liechti, Hans-Peter OBC 26:58 33.375 64/71 VBM 15/16 1.0528
66 Davy, Andrew OBC 27:00 33.333 66/71 SEM 6/6  
67 Robitaille, Brian 
(MTB: Bell to comply with Ontario traffic laws!)
OBC 27:14 33.048 67/71 VBM 16/16 0.7567
68 Nowoselski, Shiree  OBC 29:50 30.168 68/71 VBF 5/5  
69 Byskov, Karen  OBC 32:45 27.481 69/71 VAF 1/2 1.0512
70 Lapner, Katherine OBC 33:26 26.919 70/71 VAF 2/2 0.9970
71 LeBrun, Robert OBC 36:08 24.908 71/71 VAM 8/8  
 
Average Speed of all of the above 71 finishes (1065km in 28:18:24):37.624
>>>Average of the Average Speeds for these 71 finishes38.148<<<
 

The number of data records shown above is 71
The server processing of your query took: 2 wallclock secs ( 0.06 usr + 0.01 sys = 0.07 CPU)

Thanks to our Helpers: Ron Amos, Gunter Hauschildt, André Marier, Alex McKnight, Jacques Morvan, ...

     


Mar 21 (Good Friday)
Apr 24
May 1 May 6 (10km) May 8 May 13 (10km) May 15 May 20 May 20 (10km) May 22 May 27 May 27 (10km) May 29
Jun 1 (40km) Jun 3 Jun 3
  Jun 5  
Jun 10 Jun 10 Jun 12 Jun 17 Jun 17 Jun 19 Jun 24 Jun 24 Jun 26
Jul 1 (cancelled - ) Jul 2 Jul 3 Jul 6 (40km) Jul 8 Jul 8 Jul 10 Jul 15 Jul 15 Jul 17 Jul 22 Jul 22 Jul 24 Jul 27 (40km) Jul 29 Jul 29 Jul 31
Aug 5 Aug 5 Aug 7 Aug 10 (40km) Aug 12 Aug 12 Aug 14 Aug 19 Aug 19 Aug 21 Aug 26 Aug 26 (Invitational) Aug 28
Sep 2 Sep 4 Sep 7 (40km) Sep 9 Sep 11 Sep 16 Sep 21 (40km) Sep 23 Sep 30

OTT Rankings
Best       Best by category
WTT Rankings for OBC Members
5 Best Speeds     5 Best Speeds by category
OBC Member Best Three 15km Rankings
Overall     by category     age-Hcap Female   age-Hcap Male
OBC BAR Ranking
Overall     by category     Rider "Consistency-Graph"
ABC BAR Ranking
Overall     by category     Rider "Consistency-Graph"
Other years
TT Calculator All TT People All TT events
ABC Home VVV Home
CKAP GOLD MEDAL
Other Links

Note: OTT data from 2003 through 2006-Apr-14 and 2007-Apr-06-? and WTT from 2008-? is taken from the official OBC site.

Please send your comments and suggestions to: Celia McInnis
Copyright © 1998-2011 Celia McInnis. All rights reserved. Links are welcomed.